Time;durP1;ratioP1;P1;durP2;ratioP2;P2;SDS_P1;SDS_P2;PMS_P1;PMS_P2;Temp;Humidity;BMP_temperature;BMP_pressure;BME280_temperature;BME280_humidity;BME280_pressure;Samples;Min_cycle;Max_cycle;Signal;HPM_P1;HPM_P2
2021/07/25 00:00:47;;;;;;;;;;;;;;;21.76;29.42;97948.63;5000076;28;803;-80
2021/07/25 00:03:13;;;;;;;;;;;;;;;21.81;29.78;97962.22;5000131;28;662;-80
2021/07/25 00:05:39;;;;;;;;;;;;;;;21.94;29.35;97969.97;5000026;28;675;-80
2021/07/25 00:08:05;;;;;;;;;;;;;;;21.97;29.27;97971.91;5000134;28;650;-80
2021/07/25 00:10:30;;;;;;;;;;;;;;;21.93;29.03;97963.50;4999789;28;1099;-78
2021/07/25 00:12:56;;;;;;;;;;;;;;;21.84;29.35;97966.19;5003292;28;867;-79
2021/07/25 00:15:21;;;;;;;;;;;;;;;22.00;28.97;97973.84;4986776;28;1899;-79
2021/07/25 00:17:47;;;;;;;;;;;;;;;21.99;28.99;97973.03;5003791;28;714;-80
2021/07/25 00:20:12;;;;;;;;;;;;;;;21.99;29.01;97978.72;5003706;28;630;-80
2021/07/25 00:22:38;;;;;;;;;;;;;;;21.94;29.07;97975.63;5003739;28;732;-79
2021/07/25 00:25:18;;;;;;;;;;;;;;;21.98;29.04;97979.16;5002890;28;642;-80
2021/07/25 00:27:43;;;;;;;;;;;;;;;21.95;29.34;97977.22;5003500;28;710;-80
2021/07/25 00:30:09;;;;;;;;;;;;;;;21.92;29.36;97969.63;5003171;28;945;-80
2021/07/25 00:32:35;;;;;;;;;;;;;;;21.97;28.91;97977.59;5003144;28;891;-79
2021/07/25 00:35:00;;;;;;;;;;;;;;;22.01;28.96;97981.09;5003144;28;1898;-79
2021/07/25 00:37:26;;;;;;;;;;;;;;;21.85;29.29;97984.78;5002708;28;652;-79
2021/07/25 00:39:51;;;;;;;;;;;;;;;21.90;29.04;97969.28;5003390;28;734;-80
2021/07/25 00:42:17;;;;;;;;;;;;;;;22.02;29.29;97971.34;5003225;28;694;-80
2021/07/25 00:44:42;;;;;;;;;;;;;;;22.03;29.04;97972.94;5002883;28;935;-79
2021/07/25 00:47:08;;;;;;;;;;;;;;;22.01;28.91;97966.91;5002658;28;1076;-79
2021/07/25 00:49:33;;;;;;;;;;;;;;;22.09;28.88;97971.16;5002497;28;1023;-80
2021/07/25 00:51:59;;;;;;;;;;;;;;;22.01;28.95;97975.41;5002404;28;655;-80
2021/07/25 00:54:24;;;;;;;;;;;;;;;21.90;29.28;97970.06;5002953;28;1968;-80
2021/07/25 00:56:50;;;;;;;;;;;;;;;21.99;29.12;97972.25;5002781;28;938;-79
2021/07/25 00:59:16;;;;;;;;;;;;;;;21.87;29.41;97984.34;5001999;28;879;-80
2021/07/25 01:01:41;;;;;;;;;;;;;;;21.92;29.07;97980.97;5002816;28;830;-79
2021/07/25 01:04:12;;;;;;;;;;;;;;;21.89;29.09;97993.19;5002204;28;699;-79
2021/07/25 01:06:57;;;;;;;;;;;;;;;21.98;28.94;97976.34;5002078;28;627;-80
2021/07/25 01:09:41;;;;;;;;;;;;;;;21.93;29.04;97979.72;5002657;28;807;-80
2021/07/25 01:12:06;;;;;;;;;;;;;;;21.89;29.08;97973.34;5002515;28;1022;-79
2021/07/25 01:14:32;;;;;;;;;;;;;;;21.90;28.91;97991.94;5001467;28;1903;-80
2021/07/25 01:17:21;;;;;;;;;;;;;;;22.05;28.55;97981.78;5002585;28;738;-80
2021/07/25 01:19:47;;;;;;;;;;;;;;;22.03;28.56;97978.63;4999733;28;1081;-80
2021/07/25 01:22:12;;;;;;;;;;;;;;;21.93;28.82;97985.38;5000792;28;751;-80
2021/07/25 01:24:38;;;;;;;;;;;;;;;21.83;28.95;97988.06;5001825;28;678;-80
2021/07/25 01:27:03;;;;;;;;;;;;;;;21.74;29.03;97993.56;4985318;28;1248;-81
2021/07/25 01:29:29;;;;;;;;;;;;;;;21.88;29.04;97988.75;5001756;28;906;-79
2021/07/25 01:31:54;;;;;;;;;;;;;;;21.88;29.24;97988.75;5002309;28;940;-80
2021/07/25 01:34:20;;;;;;;;;;;;;;;21.93;29.00;97985.38;5002239;28;659;-79
2021/07/25 01:36:45;;;;;;;;;;;;;;;21.92;29.14;97995.13;5001529;28;1898;-79
2021/07/25 01:39:11;;;;;;;;;;;;;;;21.93;28.93;97982.56;5001549;28;706;-79
2021/07/25 01:41:42;;;;;;;;;;;;;;;21.98;28.85;97987.66;5001541;28;615;-80
2021/07/25 01:44:08;;;;;;;;;;;;;;;22.02;28.78;97983.50;5001806;28;846;-80
2021/07/25 01:46:33;;;;;;;;;;;;;;;22.01;29.03;97992.41;5001755;28;986;-79
2021/07/25 01:48:59;;;;;;;;;;;;;;;21.90;28.95;97991.94;5001143;28;1135;-80
2021/07/25 01:51:24;;;;;;;;;;;;;;;21.81;29.12;97996.22;5002082;28;631;-79
2021/07/25 01:53:50;;;;;;;;;;;;;;;21.92;29.10;97995.13;5001866;28;592;-79
2021/07/25 01:56:15;;;;;;;;;;;;;;;22.02;29.00;97994.81;5001703;28;1906;-80
2021/07/25 01:58:41;;;;;;;;;;;;;;;22.01;28.82;97998.88;5001716;28;921;-80
2021/07/25 02:01:06;;;;;;;;;;;;;;;21.90;28.91;98000.44;5001479;28;877;-80
2021/07/25 02:03:33;;;;;;;;;;;;;;;21.84;29.13;97994.50;5001015;28;1042;-79
2021/07/25 02:05:59;;;;;;;;;;;;;;;21.87;29.19;98004.97;5001748;28;742;-79
2021/07/25 02:08:24;;;;;;;;;;;;;;;21.98;29.18;98001.84;5000921;28;722;-79
2021/07/25 02:10:50;;;;;;;;;;;;;;;21.90;29.01;97997.59;5000614;28;908;-79
2021/07/25 02:13:16;;;;;;;;;;;;;;;21.92;28.97;98000.78;5001241;28;931;-80
2021/07/25 02:15:41;;;;;;;;;;;;;;;21.91;29.21;98002.00;5000794;28;1903;-79
2021/07/25 02:18:07;;;;;;;;;;;;;;;21.88;29.21;97994.44;5000655;28;1175;-79
2021/07/25 02:20:32;;;;;;;;;;;;;;;21.99;28.83;97995.72;5001366;28;706;-79
2021/07/25 02:22:58;;;;;;;;;;;;;;;21.79;29.20;97993.03;5001316;28;634;-79
2021/07/25 02:25:23;;;;;;;;;;;;;;;21.77;29.42;97994.72;5001154;28;902;-80
2021/07/25 02:27:49;;;;;;;;;;;;;;;21.82;29.44;97994.97;5000848;28;937;-79
2021/07/25 02:30:14;;;;;;;;;;;;;;;21.93;29.01;97991.03;5001199;28;886;-79
2021/07/25 02:32:40;;;;;;;;;;;;;;;21.92;29.12;97995.13;5000479;28;668;-80
2021/07/25 02:35:05;;;;;;;;;;;;;;;21.92;29.28;97995.91;5001283;28;1977;-79
2021/07/25 02:37:31;;;;;;;;;;;;;;;21.96;29.29;97995.81;5001052;28;705;-80
2021/07/25 02:39:57;;;;;;;;;;;;;;;21.85;29.36;97996.09;5000770;28;931;-79
2021/07/25 02:42:23;;;;;;;;;;;;;;;21.92;29.27;97995.13;5000839;28;919;-79
2021/07/25 02:44:48;;;;;;;;;;;;;;;21.96;29.33;98004.31;5000952;28;967;-79
2021/07/25 02:47:14;;;;;;;;;;;;;;;21.90;29.47;98003.25;4984003;28;1285;-79
2021/07/25 02:49:39;;;;;;;;;;;;;;;21.90;29.29;98003.25;5000820;28;650;-79
2021/07/25 02:52:05;;;;;;;;;;;;;;;21.92;29.17;98000.78;5000968;28;679;-80
2021/07/25 02:54:30;;;;;;;;;;;;;;;21.85;29.24;98002.56;5000753;28;1910;-79
2021/07/25 02:56:56;;;;;;;;;;;;;;;21.90;29.14;98008.94;5000529;28;937;-79
2021/07/25 02:59:21;;;;;;;;;;;;;;;21.93;29.06;98008.84;5000380;28;862;-79
2021/07/25 03:01:49;;;;;;;;;;;;;;;21.89;29.03;98007.34;5000749;28;1006;-79
2021/07/25 03:04:14;;;;;;;;;;;;;;;21.83;29.39;98010.72;5000716;28;675;-79
2021/07/25 03:06:39;;;;;;;;;;;;;;;21.78;29.42;98007.63;5000594;28;719;-80
2021/07/25 03:09:05;;;;;;;;;;;;;;;21.76;29.28;98016.59;5000207;28;592;-79
2021/07/25 03:11:30;;;;;;;;;;;;;;;21.96;29.09;98018.47;5000473;28;890;-79
2021/07/25 03:13:56;;;;;;;;;;;;;;;22.01;28.95;98017.91;5000232;28;892;-79
2021/07/25 03:16:21;;;;;;;;;;;;;;;22.04;28.67;98017.03;5000406;28;1883;-80
2021/07/25 03:18:47;;;;;;;;;;;;;;;21.99;28.82;98017.59;5000505;28;636;-79
2021/07/25 03:21:12;;;;;;;;;;;;;;;22.01;28.76;98020.75;5000882;28;610;-79
2021/07/25 03:23:37;;;;;;;;;;;;;;;21.82;29.10;98014.78;5000805;28;631;-79
2021/07/25 03:26:03;;;;;;;;;;;;;;;21.81;29.05;98018.06;5000170;28;933;-79
2021/07/25 03:28:28;;;;;;;;;;;;;;;21.81;29.32;98013.22;5000035;28;816;-79
2021/07/25 03:30:54;;;;;;;;;;;;;;;22.00;29.00;98017.13;5000255;28;963;-79
2021/07/25 03:33:20;;;;;;;;;;;;;;;21.94;28.98;98010.41;5000521;28;635;-79
2021/07/25 03:35:46;;;;;;;;;;;;;;;21.84;29.02;98006.63;5000053;28;1902;-79
2021/07/25 03:38:12;;;;;;;;;;;;;;;21.90;29.22;98021.06;4999731;28;439;-79
2021/07/25 03:40:38;;;;;;;;;;;;;;;21.93;29.06;98025.03;4999950;28;1116;-79
2021/07/25 03:43:03;;;;;;;;;;;;;;;21.97;28.92;98020.88;5000003;28;823;-79
2021/07/25 03:45:29;;;;;;;;;;;;;;;22.01;29.13;98026.41;5000305;28;855;-79
2021/07/25 03:47:54;;;;;;;;;;;;;;;21.88;29.24;98022.75;5003483;28;1105;-79
2021/07/25 03:50:20;;;;;;;;;;;;;;;21.93;29.09;98022.22;5004213;28;713;-79
2021/07/25 03:52:46;;;;;;;;;;;;;;;21.75;29.40;98019.84;5003431;28;619;-79
2021/07/25 03:55:11;;;;;;;;;;;;;;;21.81;29.37;98018.88;5002915;28;1977;-80
2021/07/25 03:57:37;;;;;;;;;;;;;;;21.74;29.29;98021.88;5004431;28;933;-80
2021/07/25 04:00:03;;;;;;;;;;;;;;;21.85;29.43;98028.06;5003993;28;960;-80
2021/07/25 04:02:32;;;;;;;;;;;;;;;21.92;29.07;98017.78;5003911;28;619;-80
2021/07/25 04:04:57;;;;;;;;;;;;;;;21.89;29.15;98018.66;5003841;28;702;-80
2021/07/25 04:07:23;;;;;;;;;;;;;;;21.87;29.12;98032.50;5004067;28;647;-80
2021/07/25 04:09:48;;;;;;;;;;;;;;;21.95;29.27;98036.72;5003389;28;899;-80
2021/07/25 04:12:13;;;;;;;;;;;;;;;22.04;29.12;98036.88;5002997;28;821;-80
2021/07/25 04:14:40;;;;;;;;;;;;;;;20.54;29.14;97798.25;5003015;28;1977;-81
2021/07/25 04:17:06;;;;;;;;;;;;;;;21.92;29.47;98024.25;5004339;28;699;-80
2021/07/25 04:19:31;;;;;;;;;;;;;;;21.81;29.43;98027.38;5003726;28;701;-80
2021/07/25 04:21:58;;;;;;;;;;;;;;;21.88;29.55;98031.25;5003627;28;611;-80
2021/07/25 04:24:24;;;;;;;;;;;;;;;21.91;29.60;98036.00;5003531;28;953;-81
2021/07/25 04:26:50;;;;;;;;;;;;;;;22.03;29.39;98038.13;5002629;28;885;-81
2021/07/25 04:29:15;;;;;;;;;;;;;;;21.88;29.42;98039.75;5003422;28;772;-80
2021/07/25 04:31:41;;;;;;;;;;;;;;;21.96;29.46;98047.59;5002907;28;717;-81
2021/07/25 04:34:06;;;;;;;;;;;;;;;21.84;29.57;98046.28;5003668;28;642;-80
2021/07/25 04:36:32;;;;;;;;;;;;;;;21.88;29.50;98051.88;5002658;28;1977;-80
2021/07/25 04:38:58;;;;;;;;;;;;;;;22.03;29.24;98043.78;5003018;28;871;-81
2021/07/25 04:41:24;;;;;;;;;;;;;;;22.02;29.73;98045.81;5002439;28;869;-80
2021/07/25 04:44:00;;;;;;;;;;;;;;;22.04;29.36;98053.88;5003234;28;949;-80
2021/07/25 04:46:29;;;;;;;;;;;;;;;21.91;29.58;98058.66;5002759;28;651;-80
2021/07/25 04:49:01;;;;;;;;;;;;;;;22.04;29.58;98051.03;5002984;28;975;-80
2021/07/25 04:51:26;;;;;;;;;;;;;;;21.95;29.66;98050.88;5003213;28;698;-80
2021/07/25 04:53:52;;;;;;;;;;;;;;;21.96;29.58;98058.91;5002801;28;862;-80
2021/07/25 04:56:18;;;;;;;;;;;;;;;21.96;29.93;98063.78;5001661;28;1981;-80
2021/07/25 04:58:49;;;;;;;;;;;;;;;21.90;29.79;98062.75;5002048;28;996;-81
2021/07/25 05:01:16;;;;;;;;;;;;;;;21.96;29.85;98063.78;5002758;28;623;-81
2021/07/25 05:03:51;;;;;;;;;;;;;;;22.11;29.66;98067.84;5002182;28;599;-81
2021/07/25 05:06:17;;;;;;;;;;;;;;;21.93;29.88;98078.88;5002633;28;656;-81
2021/07/25 05:08:42;;;;;;;;;;;;;;;21.95;30.01;98070.72;5002492;28;927;-81
2021/07/25 05:11:08;;;;;;;;;;;;;;;21.92;29.97;98068.78;5001975;28;853;-81
2021/07/25 05:13:34;;;;;;;;;;;;;;;22.01;29.77;98077.41;5002786;28;984;-81
2021/07/25 05:15:59;;;;;;;;;;;;;;;22.02;30.07;98073.34;5002076;28;1979;-81
2021/07/25 05:18:28;;;;;;;;;;;;;;;22.04;29.73;98070.88;5002075;28;639;-81
2021/07/25 05:21:02;;;;;;;;;;;;;;;21.99;30.12;98074.25;5002260;28;608;-80
2021/07/25 05:23:40;;;;;;;;;;;;;;;22.03;30.10;98081.41;5002377;28;886;-81
2021/07/25 05:26:05;;;;;;;;;;;;;;;22.05;30.02;98083.78;5002070;28;867;-81
2021/07/25 05:28:31;;;;;;;;;;;;;;;21.94;30.28;98077.63;5001929;28;655;-81
2021/07/25 05:30:56;;;;;;;;;;;;;;;21.97;30.16;98073.91;5002214;28;662;-80
2021/07/25 05:33:22;;;;;;;;;;;;;;;21.95;30.22;98074.34;5001672;28;608;-81
2021/07/25 05:35:47;;;;;;;;;;;;;;;22.02;30.29;98079.00;5001870;28;1975;-81
2021/07/25 05:38:13;;;;;;;;;;;;;;;21.94;30.50;98078.41;5002190;28;959;-81
2021/07/25 05:40:39;;;;;;;;;;;;;;;21.95;30.37;98073.53;5001678;28;890;-81
2021/07/25 05:43:04;;;;;;;;;;;;;;;21.92;30.58;98083.75;5002245;28;1100;-81
2021/07/25 05:45:30;;;;;;;;;;;;;;;22.05;30.44;98089.47;5002408;28;923;-81
2021/07/25 05:47:55;;;;;;;;;;;;;;;22.04;30.38;98088.66;5002196;28;955;-81
2021/07/25 05:50:21;;;;;;;;;;;;;;;22.01;30.53;98091.59;5002157;28;730;-81
2021/07/25 05:52:50;;;;;;;;;;;;;;;22.06;30.66;98096.72;4984758;28;849;-81
2021/07/25 05:55:26;;;;;;;;;;;;;;;22.02;30.48;98104.50;5001696;28;1965;-81
2021/07/25 05:57:51;;;;;;;;;;;;;;;22.01;30.66;98088.75;5001360;28;680;-81
2021/07/25 06:00:17;;;;;;;;;;;;;;;22.15;30.72;98094.06;5002140;28;679;-81
2021/07/25 06:02:48;;;;;;;;;;;;;;;22.13;30.43;98102.22;5002050;28;674;-81
2021/07/25 06:05:14;;;;;;;;;;;;;;;21.99;30.88;98094.88;5001855;28;747;-81
2021/07/25 06:07:39;;;;;;;;;;;;;;;22.02;30.90;98099.66;5000940;28;875;-81
2021/07/25 06:10:05;;;;;;;;;;;;;;;22.05;30.72;98095.13;5000996;28;939;-81
2021/07/25 06:12:30;;;;;;;;;;;;;;;22.11;30.87;98104.69;5001944;28;999;-81
2021/07/25 06:14:55;;;;;;;;;;;;;;;22.04;31.10;98099.19;5000875;28;1995;-81
2021/07/25 06:17:21;;;;;;;;;;;;;;;22.07;30.79;98098.28;5001662;28;713;-81
2021/07/25 06:19:46;;;;;;;;;;;;;;;22.04;31.19;98090.72;5001551;28;637;-81
2021/07/25 06:22:12;;;;;;;;;;;;;;;22.10;30.74;98103.09;5016986;28;1184;-81
2021/07/25 06:24:43;;;;;;;;;;;;;;;22.01;31.00;98095.22;5001253;28;900;-81
2021/07/25 06:27:15;;;;;;;;;;;;;;;22.14;30.92;98097.34;5001772;28;979;-81
2021/07/25 06:29:41;;;;;;;;;;;;;;;22.15;30.97;98104.59;5001694;28;564;-81
2021/07/25 06:32:08;;;;;;;;;;;;;;;22.08;30.71;98099.91;5001723;28;659;-81
2021/07/25 06:34:34;;;;;;;;;;;;;;;21.96;31.03;98097.78;5001368;28;657;-81
2021/07/25 06:36:59;;;;;;;;;;;;;;;22.03;31.07;98100.44;4984161;28;1979;-81
2021/07/25 06:39:25;;;;;;;;;;;;;;;22.09;30.94;98093.78;5000967;28;875;-81
2021/07/25 06:41:50;;;;;;;;;;;;;;;22.01;31.11;98098.03;5001266;28;1014;-81
2021/07/25 06:44:15;;;;;;;;;;;;;;;22.14;31.14;98101.00;5001793;28;653;-81
2021/07/25 06:46:41;;;;;;;;;;;;;;;22.26;30.75;98100.22;5001311;28;690;-81
2021/07/25 06:49:08;;;;;;;;;;;;;;;22.17;31.10;98096.44;5001742;28;1102;-81
2021/07/25 06:51:33;;;;;;;;;;;;;;;22.26;30.70;98100.22;5001130;28;1021;-81
2021/07/25 06:53:59;;;;;;;;;;;;;;;22.24;30.73;98101.94;5001493;28;978;-81
2021/07/25 06:56:24;;;;;;;;;;;;;;;22.27;30.92;98101.03;5001078;28;2016;-81
2021/07/25 06:58:50;;;;;;;;;;;;;;;22.16;30.88;98101.31;5001150;28;647;-81
2021/07/25 07:01:16;;;;;;;;;;;;;;;22.01;31.07;98095.22;5001541;28;663;-81
2021/07/25 07:03:42;;;;;;;;;;;;;;;22.21;30.99;98112.13;5000372;28;670;-81
2021/07/25 07:06:07;;;;;;;;;;;;;;;22.10;30.87;98108.75;5000245;28;974;-81
2021/07/25 07:08:33;;;;;;;;;;;;;;;22.21;30.64;98109.28;5000821;28;973;-81
2021/07/25 07:10:58;;;;;;;;;;;;;;;22.09;30.79;98107.97;5001388;28;1000;-81
2021/07/25 07:13:24;;;;;;;;;;;;;;;22.09;30.76;98112.84;5000296;28;702;-81
2021/07/25 07:15:49;;;;;;;;;;;;;;;22.10;31.05;98103.09;5001089;28;1906;-81
2021/07/25 07:18:15;;;;;;;;;;;;;;;22.22;30.74;98112.91;5000542;28;1279;-81
2021/07/25 07:20:40;;;;;;;;;;;;;;;22.26;30.43;98117.25;5000249;28;1089;-81
2021/07/25 07:23:08;;;;;;;;;;;;;;;22.17;30.65;98119.91;5000882;28;902;-81
2021/07/25 07:25:37;;;;;;;;;;;;;;;22.27;30.47;98121.66;5000324;28;867;-81
2021/07/25 07:28:03;;;;;;;;;;;;;;;22.31;30.39;98119.53;5000235;28;643;-81
2021/07/25 07:30:28;;;;;;;;;;;;;;;22.23;30.53;98123.81;5000505;28;678;-81
2021/07/25 07:32:54;;;;;;;;;;;;;;;22.21;30.76;98126.28;5000954;28;682;-81
2021/07/25 07:35:23;;;;;;;;;;;;;;;22.06;30.76;98120.16;5000400;28;1963;-81
2021/07/25 07:37:49;;;;;;;;;;;;;;;22.11;30.67;98121.69;5000466;28;921;-80
2021/07/25 07:40:15;;;;;;;;;;;;;;;22.22;30.60;98133.53;5001026;28;1000;-81
2021/07/25 07:42:40;;;;;;;;;;;;;;;22.14;30.76;98137.81;5000624;28;584;-81
2021/07/25 07:45:06;;;;;;;;;;;;;;;22.16;30.88;98124.00;5001085;28;627;-81
2021/07/25 07:47:31;;;;;;;;;;;;;;;22.31;30.40;98124.41;5000820;28;1161;-81
2021/07/25 07:49:57;;;;;;;;;;;;;;;22.22;30.50;98127.88;5000504;28;1150;-81
2021/07/25 07:52:22;;;;;;;;;;;;;;;22.16;30.48;98124.00;5000616;28;885;-81
2021/07/25 07:54:48;;;;;;;;;;;;;;;22.23;30.55;98121.00;5000527;28;1911;-81
2021/07/25 07:57:13;;;;;;;;;;;;;;;22.21;30.46;98131.97;5000898;28;654;-80
2021/07/25 07:59:39;;;;;;;;;;;;;;;22.22;30.60;98139.22;5001029;28;679;-81
2021/07/25 08:02:04;;;;;;;;;;;;;;;22.34;30.55;98130.00;5000743;28;619;-81
2021/07/25 08:04:30;;;;;;;;;;;;;;;22.30;30.35;98122.81;4999473;28;1081;-81
2021/07/25 08:06:55;;;;;;;;;;;;;;;22.17;30.98;98125.59;5000408;28;883;-81
2021/07/25 08:09:20;;;;;;;;;;;;;;;22.26;30.55;98134.25;4999804;28;835;-82
2021/07/25 08:11:46;;;;;;;;;;;;;;;22.30;30.56;98140.63;5000052;28;698;-81
2021/07/25 08:14:15;;;;;;;;;;;;;;;22.18;30.60;98144.19;5000567;28;666;-81
2021/07/25 08:16:40;;;;;;;;;;;;;;;22.11;31.04;98127.38;5001076;28;1902;-80
2021/07/25 08:19:06;;;;;;;;;;;;;;;22.30;30.54;98137.00;5000358;28;949;-81
2021/07/25 08:21:31;;;;;;;;;;;;;;;22.31;30.36;98142.22;4999524;28;889;-81
2021/07/25 08:23:57;;;;;;;;;;;;;;;22.31;30.49;98142.22;5000334;28;885;-81
2021/07/25 08:26:22;;;;;;;;;;;;;;;22.21;30.85;98137.63;5000006;28;675;-81
2021/07/25 08:28:48;;;;;;;;;;;;;;;22.36;30.37;98138.84;5000955;28;769;-81
2021/07/25 08:31:13;;;;;;;;;;;;;;;22.31;30.59;98135.75;5001218;28;674;-81
2021/07/25 08:33:38;;;;;;;;;;;;;;;22.21;30.76;98142.50;5002876;28;1046;-81
2021/07/25 08:36:04;;;;;;;;;;;;;;;22.20;30.90;98135.25;5003960;28;1898;-81
2021/07/25 08:38:30;;;;;;;;;;;;;;;22.12;30.91;98134.63;5002815;28;969;-81
2021/07/25 08:41:09;;;;;;;;;;;;;;;22.24;30.86;98139.56;5004022;28;719;-81
2021/07/25 08:43:36;;;;;;;;;;;;;;;22.27;30.85;98137.88;5002892;28;638;-81
2021/07/25 08:46:01;;;;;;;;;;;;;;;22.29;30.83;98141.06;5003187;28;647;-81
2021/07/25 08:48:33;;;;;;;;;;;;;;;22.38;30.70;98143.25;5002352;28;1142;-81
2021/07/25 08:51:01;;;;;;;;;;;;;;;22.23;31.03;98152.16;5003070;28;935;-81
2021/07/25 08:53:27;;;;;;;;;;;;;;;22.23;30.97;98143.66;5002797;28;1084;-81
2021/07/25 08:55:53;;;;;;;;;;;;;;;22.33;30.74;98145.41;5002922;28;1906;-81
2021/07/25 08:58:18;;;;;;;;;;;;;;;22.38;30.66;98143.25;5003335;28;663;-81
2021/07/25 09:00:44;;;;;;;;;;;;;;;22.28;30.51;98148.00;5002954;28;638;-81
2021/07/25 09:03:09;;;;;;;;;;;;;;;22.30;31.00;98139.84;5002255;28;1114;-81
2021/07/25 09:05:35;;;;;;;;;;;;;;;22.24;30.70;98145.25;5003120;28;807;-81
2021/07/25 09:08:04;;;;;;;;;;;;;;;22.46;30.53;98153.97;5002475;28;899;-81
2021/07/25 09:10:29;;;;;;;;;;;;;;;22.42;30.72;98155.28;5002473;28;647;-81
2021/07/25 09:12:55;;;;;;;;;;;;;;;22.25;30.97;98146.84;5002657;28;707;-81
2021/07/25 09:15:24;;;;;;;;;;;;;;;22.29;30.95;98160.91;5003061;28;1894;-81
2021/07/25 09:17:50;;;;;;;;;;;;;;;22.27;30.95;98158.50;5002058;28;942;-81
2021/07/25 09:20:20;;;;;;;;;;;;;;;22.25;31.12;98161.00;5002056;28;837;-81
2021/07/25 09:22:48;;;;;;;;;;;;;;;22.36;30.57;98155.84;5003132;28;1025;-81
2021/07/25 09:25:19;;;;;;;;;;;;;;;22.31;31.07;98164.88;5003347;28;655;-81
2021/07/25 09:27:45;;;;;;;;;;;;;;;22.39;30.77;98164.72;5003412;28;636;-81
2021/07/25 09:30:20;;;;;;;;;;;;;;;22.36;30.73;98166.38;5002303;28;651;-82
2021/07/25 09:32:45;;;;;;;;;;;;;;;22.31;31.07;98153.53;5001988;28;1048;-81
2021/07/25 09:35:27;;;;;;;;;;;;;;;22.22;31.25;98159.06;5001793;28;1902;-82
2021/07/25 09:37:56;;;;;;;;;;;;;;;22.28;31.11;98162.16;5002335;28;678;-81
2021/07/25 09:40:26;;;;;;;;;;;;;;;22.40;30.71;98166.28;5002366;28;647;-82
2021/07/25 09:43:30;;;;;;;;;;;;;;;22.40;30.93;98160.63;5002485;28;690;-82
2021/07/25 09:45:59;;;;;;;;;;;;;;;22.38;30.79;98163.09;5001746;28;1046;-82
2021/07/25 09:48:33;;;;;;;;;;;;;;;22.38;30.70;98151.75;5017482;28;991;-82
2021/07/25 09:50:59;;;;;;;;;;;;;;;22.29;30.77;98190.06;5002953;28;885;-82
2021/07/25 09:53:29;;;;;;;;;;;;;;;22.32;30.83;98155.13;5001832;28;853;-81
2021/07/25 09:55:54;;;;;;;;;;;;;;;22.40;30.97;98150.09;5001909;28;1987;-82
2021/07/25 09:58:33;;;;;;;;;;;;;;;22.33;31.05;98150.28;5001758;28;838;-82
2021/07/25 10:00:58;;;;;;;;;;;;;;;22.31;30.87;98147.88;5002161;28;653;-82
2021/07/25 10:03:24;;;;;;;;;;;;;;;22.35;30.82;98147.78;5002092;28;953;-81
2021/07/25 10:05:52;;;;;;;;;;;;;;;22.38;30.96;98146.09;5001684;28;876;-82
2021/07/25 10:08:21;;;;;;;;;;;;;;;22.38;31.03;98151.75;5002400;28;888;-82
2021/07/25 10:10:47;;;;;;;;;;;;;;;22.31;31.28;98145.03;5001821;28;650;-82
2021/07/25 10:13:16;;;;;;;;;;;;;;;22.26;30.98;98147.63;5001505;28;814;-81
2021/07/25 10:15:43;;;;;;;;;;;;;;;22.32;31.32;98143.78;5001652;28;1969;-82
2021/07/25 10:18:09;;;;;;;;;;;;;;;22.35;30.98;98148.59;5001059;28;1026;-81
2021/07/25 10:20:34;;;;;;;;;;;;;;;22.47;30.93;98154.75;4985208;28;921;-81
2021/07/25 10:23:00;;;;;;;;;;;;;;;22.40;30.98;98160.63;5001343;28;985;-81
2021/07/25 10:25:26;;;;;;;;;;;;;;;22.28;31.11;98153.66;5001900;28;655;-81
2021/07/25 10:27:57;;;;;;;;;;;;;;;22.37;31.08;98162.31;5002027;28;666;-81
2021/07/25 10:30:23;;;;;;;;;;;;;;;22.35;30.90;98154.25;5001426;28;611;-81
2021/07/25 10:32:48;;;;;;;;;;;;;;;22.35;30.86;98150.63;5000797;28;1091;-81
2021/07/25 10:35:13;;;;;;;;;;;;;;;22.46;30.90;98159.63;5000722;28;1918;-82
2021/07/25 10:37:40;;;;;;;;;;;;;;;22.39;30.82;98153.38;5001687;28;845;-81
2021/07/25 10:40:05;;;;;;;;;;;;;;;22.35;30.79;98142.91;5001403;28;676;-82
2021/07/25 10:42:34;;;;;;;;;;;;;;;22.38;31.03;98151.75;5000934;28;920;-81
2021/07/25 10:45:00;;;;;;;;;;;;;;;22.30;30.96;98149.13;5000958;28;702;-82
2021/07/25 10:47:26;;;;;;;;;;;;;;;22.50;30.60;98149.00;5000589;28;1288;-82
2021/07/25 10:50:15;;;;;;;;;;;;;;;22.33;31.21;98138.94;5001201;28;820;-82
2021/07/25 10:55:33;;;;;;;;;;;;;;;22.34;31.02;98135.66;5001332;28;1964;-82
2021/07/25 10:58:02;;;;;;;;;;;;;;;22.24;31.02;98128.25;5001392;28;709;-81
2021/07/25 11:00:46;;;;;;;;;;;;;;;22.36;30.91;98132.38;5000863;28;869;-82
2021/07/25 11:03:38;;;;;;;;;;;;;;;22.35;31.34;98145.75;5001014;28;1097;-81
2021/07/25 11:06:07;;;;;;;;;;;;;;;22.39;31.29;98147.69;5000268;28;903;-81
2021/07/25 11:08:35;;;;;;;;;;;;;;;22.42;31.03;98141.13;5001122;28;711;-81
2021/07/25 11:11:01;;;;;;;;;;;;;;;22.48;30.82;98150.66;5016961;28;1148;-81
2021/07/25 11:13:42;;;;;;;;;;;;;;;22.44;31.09;98138.66;5000385;28;834;-82
2021/07/25 11:16:26;;;;;;;;;;;;;;;22.31;31.02;98147.88;5001615;28;1898;-81
2021/07/25 11:18:51;;;;;;;;;;;;;;;22.48;30.75;98145.00;5000769;28;841;-81
2021/07/25 11:21:30;;;;;;;;;;;;;;;22.42;30.85;98149.63;5000882;28;820;-81
2021/07/25 11:23:55;;;;;;;;;;;;;;;22.38;31.23;98152.56;5001032;28;673;-81
2021/07/25 11:26:31;;;;;;;;;;;;;;;22.48;30.79;98145.00;5001088;28;630;-81
2021/07/25 11:28:57;;;;;;;;;;;;;;;22.31;31.04;98142.22;5000856;28;619;-81
2021/07/25 11:31:32;;;;;;;;;;;;;;;22.28;31.44;98145.97;5001147;28;623;-81
2021/07/25 11:33:57;;;;;;;;;;;;;;;22.38;30.97;98135.53;5000087;28;1058;-81
2021/07/25 11:36:23;;;;;;;;;;;;;;;22.35;31.25;98142.91;5000551;28;1906;-82
2021/07/25 11:38:49;;;;;;;;;;;;;;;22.49;30.71;98135.28;5000185;28;878;-82
2021/07/25 11:41:19;;;;;;;;;;;;;;;22.43;30.91;98143.50;5000348;28;897;-81
2021/07/25 11:43:49;;;;;;;;;;;;;;;22.41;30.91;98139.53;5000336;28;765;-81
2021/07/25 11:46:24;;;;;;;;;;;;;;;22.48;30.83;98130.81;5000677;28;777;-82
2021/07/25 11:49:08;;;;;;;;;;;;;;;22.41;30.91;98133.88;4999787;28;1001;-82
2021/07/25 11:51:33;;;;;;;;;;;;;;;22.42;31.06;98124.91;5000878;28;901;-81
2021/07/25 11:53:59;;;;;;;;;;;;;;;22.46;30.87;98121.97;5000876;28;630;-81
2021/07/25 11:56:24;;;;;;;;;;;;;;;22.49;31.13;98129.59;5001074;28;1911;-82
2021/07/25 11:59:23;;;;;;;;;;;;;;;22.46;30.98;98130.47;5000662;28;607;-82
2021/07/25 12:01:49;;;;;;;;;;;;;;;22.48;31.09;98116.63;5000949;28;603;-81
2021/07/25 12:04:21;;;;;;;;;;;;;;;22.60;30.95;98125.22;4999609;28;975;-82
2021/07/25 12:06:46;;;;;;;;;;;;;;;22.46;31.09;98128.44;5001828;28;936;-82
2021/07/25 12:09:12;;;;;;;;;;;;;;;22.39;31.06;98130.69;5003761;28;1000;-82
2021/07/25 12:11:38;;;;;;;;;;;;;;;22.42;31.24;98129.78;5003971;28;687;-81
2021/07/25 12:14:03;;;;;;;;;;;;;;;22.40;31.20;98124.56;5003654;28;603;-82
2021/07/25 12:16:45;;;;;;;;;;;;;;;22.52;31.15;98135.16;5003870;28;1907;-82
2021/07/25 12:19:12;;;;;;;;;;;;;;;22.45;30.91;98134.56;5003357;28;883;-82
2021/07/25 12:21:37;;;;;;;;;;;;;;;22.51;31.15;98121.44;5003838;28;816;-81
2021/07/25 12:24:03;;;;;;;;;;;;;;;22.45;31.04;98117.56;5004037;28;654;-82
2021/07/25 12:26:38;;;;;;;;;;;;;;;22.41;31.50;98123.31;5004593;28;714;-82
2021/07/25 12:29:23;;;;;;;;;;;;;;;22.43;31.25;98125.69;5003355;28;877;-82
2021/07/25 12:31:49;;;;;;;;;;;;;;;22.47;31.09;98121.53;5003629;28;1062;-82
2021/07/25 12:34:21;;;;;;;;;;;;;;;22.45;31.03;98123.22;5002967;28;988;-82
2021/07/25 12:36:46;;;;;;;;;;;;;;;22.45;30.95;98120.38;5003039;28;1902;-82
2021/07/25 12:39:18;;;;;;;;;;;;;;;22.53;30.95;98118.94;5003967;28;976;-82
2021/07/25 12:41:44;;;;;;;;;;;;;;;22.47;31.17;98118.69;5003404;28;683;-81
2021/07/25 12:44:09;;;;;;;;;;;;;;;22.56;30.96;98123.72;5003972;28;671;-81
2021/07/25 12:46:35;;;;;;;;;;;;;;;22.45;31.24;98120.38;5003506;28;850;-81
2021/07/25 12:49:04;;;;;;;;;;;;;;;22.44;31.24;98113.94;5002673;28;1239;-82
2021/07/25 12:51:41;;;;;;;;;;;;;;;22.35;31.11;98125.91;5003704;28;956;-82
2021/07/25 12:54:07;;;;;;;;;;;;;;;22.44;31.39;98104.63;5002918;28;979;-82
2021/07/25 12:56:33;;;;;;;;;;;;;;;22.52;30.79;98108.84;5003128;28;1956;-82
2021/07/25 12:59:04;;;;;;;;;;;;;;;22.53;30.91;98119.72;4986797;28;820;-82
2021/07/25 13:04:24;;;;;;;;;;;;;;;22.49;31.07;98119.03;5003114;28;1099;-82
2021/07/25 13:06:49;;;;;;;;;;;;;;;22.51;31.35;98115.75;5003518;28;974;-81
2021/07/25 13:09:18;;;;;;;;;;;;;;;22.53;31.13;98110.41;5019513;28;1584;-81
2021/07/25 13:11:47;;;;;;;;;;;;;;;22.52;31.13;98109.63;5003796;28;735;-80